sensor_id;sensor_type;location;lat;lon;timestamp;temperature;humidity
19665;DHT22;9980;51.020;7.772;2023-07-13T00:02:17;20.20;77.10
19665;DHT22;9980;51.020;7.772;2023-07-13T00:04:45;20.00;78.60
19665;DHT22;9980;51.020;7.772;2023-07-13T00:07:13;20.00;77.70
19665;DHT22;9980;51.020;7.772;2023-07-13T00:09:41;20.00;77.50
19665;DHT22;9980;51.020;7.772;2023-07-13T00:12:29;20.00;77.10
19665;DHT22;9980;51.020;7.772;2023-07-13T00:15:00;19.90;76.80
19665;DHT22;9980;51.020;7.772;2023-07-13T00:17:28;19.90;76.70
19665;DHT22;9980;51.020;7.772;2023-07-13T00:19:56;19.80;76.80
19665;DHT22;9980;51.020;7.772;2023-07-13T00:22:25;19.80;77.10
19665;DHT22;9980;51.020;7.772;2023-07-13T00:24:54;19.70;77.00
19665;DHT22;9980;51.020;7.772;2023-07-13T00:27:24;19.70;76.90
19665;DHT22;9980;51.020;7.772;2023-07-13T00:29:53;19.60;77.60
19665;DHT22;9980;51.020;7.772;2023-07-13T00:32:20;19.50;77.90
19665;DHT22;9980;51.020;7.772;2023-07-13T00:34:47;19.50;77.90
19665;DHT22;9980;51.020;7.772;2023-07-13T00:37:14;19.40;78.30
19665;DHT22;9980;51.020;7.772;2023-07-13T00:39:41;19.30;78.40
19665;DHT22;9980;51.020;7.772;2023-07-13T00:42:09;19.30;78.90
19665;DHT22;9980;51.020;7.772;2023-07-13T00:44:36;19.20;79.00
19665;DHT22;9980;51.020;7.772;2023-07-13T00:47:03;19.20;79.30
19665;DHT22;9980;51.020;7.772;2023-07-13T00:49:31;19.10;79.50
19665;DHT22;9980;51.020;7.772;2023-07-13T00:52:05;19.00;79.80
19665;DHT22;9980;51.020;7.772;2023-07-13T00:54:38;18.90;79.80
19665;DHT22;9980;51.020;7.772;2023-07-13T00:57:12;18.90;80.00
19665;DHT22;9980;51.020;7.772;2023-07-13T00:59:45;18.80;80.10
19665;DHT22;9980;51.020;7.772;2023-07-13T01:02:14;18.70;80.20
19665;DHT22;9980;51.020;7.772;2023-07-13T01:04:42;18.70;80.50
19665;DHT22;9980;51.020;7.772;2023-07-13T01:07:11;18.60;80.60
19665;DHT22;9980;51.020;7.772;2023-07-13T01:09:39;18.50;81.50
19665;DHT22;9980;51.020;7.772;2023-07-13T01:12:06;18.50;80.90
19665;DHT22;9980;51.020;7.772;2023-07-13T01:14:34;18.40;81.20
19665;DHT22;9980;51.020;7.772;2023-07-13T01:17:00;18.40;81.30
19665;DHT22;9980;51.020;7.772;2023-07-13T01:19:37;18.30;81.60
19665;DHT22;9980;51.020;7.772;2023-07-13T01:22:12;18.20;82.10
19665;DHT22;9980;51.020;7.772;2023-07-13T01:24:43;18.20;81.60
19665;DHT22;9980;51.020;7.772;2023-07-13T01:27:15;18.10;82.00
19665;DHT22;9980;51.020;7.772;2023-07-13T01:29:45;18.00;82.20
19665;DHT22;9980;51.020;7.772;2023-07-13T01:32:17;18.00;82.50
19665;DHT22;9980;51.020;7.772;2023-07-13T01:34:53;17.90;83.00
19665;DHT22;9980;51.020;7.772;2023-07-13T01:37:22;17.90;82.80
19665;DHT22;9980;51.020;7.772;2023-07-13T01:39:51;17.80;83.00
19665;DHT22;9980;51.020;7.772;2023-07-13T01:42:18;17.70;82.80
19665;DHT22;9980;51.020;7.772;2023-07-13T01:44:47;17.70;83.00
19665;DHT22;9980;51.020;7.772;2023-07-13T01:47:14;17.60;83.10
19665;DHT22;9980;51.020;7.772;2023-07-13T01:49:41;17.60;83.50
19665;DHT22;9980;51.020;7.772;2023-07-13T01:52:08;17.50;83.50
19665;DHT22;9980;51.020;7.772;2023-07-13T01:54:35;17.50;83.50
19665;DHT22;9980;51.020;7.772;2023-07-13T01:57:02;17.40;83.80
19665;DHT22;9980;51.020;7.772;2023-07-13T01:59:30;17.40;84.00
19665;DHT22;9980;51.020;7.772;2023-07-13T02:01:57;17.30;84.10
19665;DHT22;9980;51.020;7.772;2023-07-13T02:04:24;17.20;84.20
19665;DHT22;9980;51.020;7.772;2023-07-13T02:06:51;17.20;84.50
19665;DHT22;9980;51.020;7.772;2023-07-13T02:09:18;17.10;84.50
19665;DHT22;9980;51.020;7.772;2023-07-13T02:11:45;17.10;84.60
19665;DHT22;9980;51.020;7.772;2023-07-13T02:14:12;17.00;84.80
19665;DHT22;9980;51.020;7.772;2023-07-13T02:16:39;17.00;85.20
19665;DHT22;9980;51.020;7.772;2023-07-13T02:19:06;16.90;85.10
19665;DHT22;9980;51.020;7.772;2023-07-13T02:21:33;16.90;85.40
19665;DHT22;9980;51.020;7.772;2023-07-13T02:24:00;16.80;85.50
19665;DHT22;9980;51.020;7.772;2023-07-13T02:26:27;16.80;85.80
19665;DHT22;9980;51.020;7.772;2023-07-13T02:28:54;16.70;86.00
19665;DHT22;9980;51.020;7.772;2023-07-13T02:31:21;16.70;86.10
19665;DHT22;9980;51.020;7.772;2023-07-13T02:33:48;16.60;86.10
19665;DHT22;9980;51.020;7.772;2023-07-13T02:36:16;16.50;86.50
19665;DHT22;9980;51.020;7.772;2023-07-13T02:38:45;16.50;86.80
19665;DHT22;9980;51.020;7.772;2023-07-13T02:41:12;16.50;87.10
19665;DHT22;9980;51.020;7.772;2023-07-13T02:43:40;16.40;87.10
19665;DHT22;9980;51.020;7.772;2023-07-13T02:46:08;16.40;87.50
19665;DHT22;9980;51.020;7.772;2023-07-13T02:48:37;16.30;87.10
19665;DHT22;9980;51.020;7.772;2023-07-13T02:51:06;16.30;87.50
19665;DHT22;9980;51.020;7.772;2023-07-13T02:53:34;16.20;87.30
19665;DHT22;9980;51.020;7.772;2023-07-13T02:56:03;16.20;87.60
19665;DHT22;9980;51.020;7.772;2023-07-13T02:58:31;16.20;88.20
19665;DHT22;9980;51.020;7.772;2023-07-13T03:00:59;16.10;88.20
19665;DHT22;9980;51.020;7.772;2023-07-13T03:03:34;16.10;88.60
19665;DHT22;9980;51.020;7.772;2023-07-13T03:06:02;16.00;88.50
19665;DHT22;9980;51.020;7.772;2023-07-13T03:08:35;16.00;88.40
19665;DHT22;9980;51.020;7.772;2023-07-13T03:11:12;16.00;89.00
19665;DHT22;9980;51.020;7.772;2023-07-13T03:13:43;15.90;89.10
19665;DHT22;9980;51.020;7.772;2023-07-13T03:16:11;15.90;89.20
19665;DHT22;9980;51.020;7.772;2023-07-13T03:18:42;15.80;89.10
19665;DHT22;9980;51.020;7.772;2023-07-13T03:21:11;15.80;89.40
19665;DHT22;9980;51.020;7.772;2023-07-13T03:23:39;15.80;89.70
19665;DHT22;9980;51.020;7.772;2023-07-13T03:26:10;15.70;89.40
19665;DHT22;9980;51.020;7.772;2023-07-13T03:28:41;15.70;89.60
19665;DHT22;9980;51.020;7.772;2023-07-13T03:31:18;15.70;90.20
19665;DHT22;9980;51.020;7.772;2023-07-13T03:33:47;15.70;90.30
19665;DHT22;9980;51.020;7.772;2023-07-13T03:36:18;15.60;90.20
19665;DHT22;9980;51.020;7.772;2023-07-13T03:38:55;15.60;90.20
19665;DHT22;9980;51.020;7.772;2023-07-13T03:41:31;15.60;90.30
19665;DHT22;9980;51.020;7.772;2023-07-13T03:43:58;15.60;90.50
19665;DHT22;9980;51.020;7.772;2023-07-13T03:46:26;15.60;90.40
19665;DHT22;9980;51.020;7.772;2023-07-13T03:48:54;15.50;90.70
19665;DHT22;9980;51.020;7.772;2023-07-13T03:51:21;15.50;90.90
19665;DHT22;9980;51.020;7.772;2023-07-13T03:53:48;15.50;90.90
19665;DHT22;9980;51.020;7.772;2023-07-13T03:56:19;15.50;91.30
19665;DHT22;9980;51.020;7.772;2023-07-13T03:58:48;15.50;91.00
19665;DHT22;9980;51.020;7.772;2023-07-13T04:01:20;15.50;91.30
19665;DHT22;9980;51.020;7.772;2023-07-13T04:03:48;15.50;91.30
19665;DHT22;9980;51.020;7.772;2023-07-13T04:06:18;15.50;91.30
19665;DHT22;9980;51.020;7.772;2023-07-13T04:08:53;15.50;91.40
19665;DHT22;9980;51.020;7.772;2023-07-13T04:11:25;15.50;91.60
19665;DHT22;9980;51.020;7.772;2023-07-13T04:13:55;15.50;91.20
19665;DHT22;9980;51.020;7.772;2023-07-13T04:16:22;15.50;91.50
19665;DHT22;9980;51.020;7.772;2023-07-13T04:18:50;15.50;91.30
19665;DHT22;9980;51.020;7.772;2023-07-13T04:21:21;15.50;91.30
19665;DHT22;9980;51.020;7.772;2023-07-13T04:23:48;15.50;91.80
19665;DHT22;9980;51.020;7.772;2023-07-13T04:26:15;15.50;91.60
19665;DHT22;9980;51.020;7.772;2023-07-13T04:28:42;15.60;91.60
19665;DHT22;9980;51.020;7.772;2023-07-13T04:31:09;15.60;91.40
19665;DHT22;9980;51.020;7.772;2023-07-13T04:33:36;15.60;91.70
19665;DHT22;9980;51.020;7.772;2023-07-13T04:36:04;15.60;91.70
19665;DHT22;9980;51.020;7.772;2023-07-13T04:38:32;15.60;91.70
19665;DHT22;9980;51.020;7.772;2023-07-13T04:41:01;15.70;92.30
19665;DHT22;9980;51.020;7.772;2023-07-13T04:43:31;15.60;92.30
19665;DHT22;9980;51.020;7.772;2023-07-13T04:46:05;15.70;92.50
19665;DHT22;9980;51.020;7.772;2023-07-13T04:48:34;15.70;93.30
19665;DHT22;9980;51.020;7.772;2023-07-13T04:51:02;15.80;93.70
19665;DHT22;9980;51.020;7.772;2023-07-13T04:53:29;15.90;94.20
19665;DHT22;9980;51.020;7.772;2023-07-13T04:55:57;16.10;94.30
19665;DHT22;9980;51.020;7.772;2023-07-13T04:58:24;16.30;94.30
19665;DHT22;9980;51.020;7.772;2023-07-13T05:00:52;16.60;94.40
19665;DHT22;9980;51.020;7.772;2023-07-13T05:03:25;16.80;94.20
19665;DHT22;9980;51.020;7.772;2023-07-13T05:06:01;16.90;94.00
19665;DHT22;9980;51.020;7.772;2023-07-13T05:08:29;17.10;93.90
19665;DHT22;9980;51.020;7.772;2023-07-13T05:10:56;17.30;93.90
19665;DHT22;9980;51.020;7.772;2023-07-13T05:13:23;17.50;93.90
19665;DHT22;9980;51.020;7.772;2023-07-13T05:15:59;17.60;93.60
19665;DHT22;9980;51.020;7.772;2023-07-13T05:18:28;17.70;93.80
19665;DHT22;9980;51.020;7.772;2023-07-13T05:21:00;17.90;93.70
19665;DHT22;9980;51.020;7.772;2023-07-13T05:23:31;18.00;93.40
19665;DHT22;9980;51.020;7.772;2023-07-13T05:26:02;18.10;93.40
19665;DHT22;9980;51.020;7.772;2023-07-13T05:28:33;18.20;93.00
19665;DHT22;9980;51.020;7.772;2023-07-13T05:31:01;18.30;93.00
19665;DHT22;9980;51.020;7.772;2023-07-13T05:33:28;18.50;92.60
19665;DHT22;9980;51.020;7.772;2023-07-13T05:35:55;18.60;92.50
19665;DHT22;9980;51.020;7.772;2023-07-13T05:38:25;18.60;92.50
19665;DHT22;9980;51.020;7.772;2023-07-13T05:40:54;18.70;92.30
19665;DHT22;9980;51.020;7.772;2023-07-13T05:43:22;18.80;92.10
19665;DHT22;9980;51.020;7.772;2023-07-13T05:45:52;18.80;92.10
19665;DHT22;9980;51.020;7.772;2023-07-13T05:48:20;18.90;92.00
19665;DHT22;9980;51.020;7.772;2023-07-13T05:50:48;19.00;92.50
19665;DHT22;9980;51.020;7.772;2023-07-13T05:53:15;19.00;92.20
19665;DHT22;9980;51.020;7.772;2023-07-13T05:55:46;19.10;92.00
19665;DHT22;9980;51.020;7.772;2023-07-13T05:58:17;19.20;91.90
19665;DHT22;9980;51.020;7.772;2023-07-13T06:00:44;19.30;91.90
19665;DHT22;9980;51.020;7.772;2023-07-13T06:03:12;19.30;92.20
19665;DHT22;9980;51.020;7.772;2023-07-13T06:05:39;19.40;91.70
19665;DHT22;9980;51.020;7.772;2023-07-13T06:08:07;19.40;91.70
19665;DHT22;9980;51.020;7.772;2023-07-13T06:10:35;19.40;91.70
19665;DHT22;9980;51.020;7.772;2023-07-13T06:13:03;19.50;91.90
19665;DHT22;9980;51.020;7.772;2023-07-13T06:15:30;19.60;91.80
19665;DHT22;9980;51.020;7.772;2023-07-13T06:17:57;19.60;91.70
19665;DHT22;9980;51.020;7.772;2023-07-13T06:20:24;19.70;91.50
19665;DHT22;9980;51.020;7.772;2023-07-13T06:22:52;19.80;91.50
19665;DHT22;9980;51.020;7.772;2023-07-13T06:25:19;19.80;91.40
19665;DHT22;9980;51.020;7.772;2023-07-13T06:27:46;19.90;91.60
19665;DHT22;9980;51.020;7.772;2023-07-13T06:30:13;20.00;91.60
19665;DHT22;9980;51.020;7.772;2023-07-13T06:32:40;20.00;91.10
19665;DHT22;9980;51.020;7.772;2023-07-13T06:35:07;20.10;91.10
19665;DHT22;9980;51.020;7.772;2023-07-13T06:37:35;20.20;91.00
19665;DHT22;9980;51.020;7.772;2023-07-13T06:40:01;20.20;91.20
19665;DHT22;9980;51.020;7.772;2023-07-13T06:42:30;20.30;91.20
19665;DHT22;9980;51.020;7.772;2023-07-13T06:44:57;20.40;91.20
19665;DHT22;9980;51.020;7.772;2023-07-13T06:47:24;20.40;91.30
19665;DHT22;9980;51.020;7.772;2023-07-13T06:49:51;20.50;91.20
19665;DHT22;9980;51.020;7.772;2023-07-13T06:52:18;20.60;90.90
19665;DHT22;9980;51.020;7.772;2023-07-13T06:54:45;20.70;90.80
19665;DHT22;9980;51.020;7.772;2023-07-13T06:57:12;20.70;90.80
19665;DHT22;9980;51.020;7.772;2023-07-13T06:59:39;20.80;90.70
19665;DHT22;9980;51.020;7.772;2023-07-13T07:02:06;20.90;90.90
19665;DHT22;9980;51.020;7.772;2023-07-13T07:04:34;20.90;90.80
19665;DHT22;9980;51.020;7.772;2023-07-13T07:07:01;21.00;91.00
19665;DHT22;9980;51.020;7.772;2023-07-13T07:09:28;21.10;91.00
19665;DHT22;9980;51.020;7.772;2023-07-13T07:11:56;21.20;91.10
19665;DHT22;9980;51.020;7.772;2023-07-13T07:14:30;21.30;91.00
19665;DHT22;9980;51.020;7.772;2023-07-13T07:16:57;21.40;90.50
19665;DHT22;9980;51.020;7.772;2023-07-13T07:19:27;21.40;90.40
19665;DHT22;9980;51.020;7.772;2023-07-13T07:21:56;21.50;90.30
19665;DHT22;9980;51.020;7.772;2023-07-13T07:24:23;21.60;90.50
19665;DHT22;9980;51.020;7.772;2023-07-13T07:26:50;21.70;90.60
19665;DHT22;9980;51.020;7.772;2023-07-13T07:29:20;21.70;90.20
19665;DHT22;9980;51.020;7.772;2023-07-13T07:31:50;21.80;90.50
19665;DHT22;9980;51.020;7.772;2023-07-13T07:34:31;21.90;90.30
19665;DHT22;9980;51.020;7.772;2023-07-13T07:37:02;22.00;90.30
19665;DHT22;9980;51.020;7.772;2023-07-13T07:39:32;22.10;90.30
19665;DHT22;9980;51.020;7.772;2023-07-13T07:41:59;22.20;90.20
19665;DHT22;9980;51.020;7.772;2023-07-13T07:44:26;22.30;89.80
19665;DHT22;9980;51.020;7.772;2023-07-13T07:46:55;22.50;90.00
19665;DHT22;9980;51.020;7.772;2023-07-13T07:49:22;22.60;89.10
19665;DHT22;9980;51.020;7.772;2023-07-13T07:51:49;22.60;89.50
19665;DHT22;9980;51.020;7.772;2023-07-13T07:54:16;22.70;87.50
19665;DHT22;9980;51.020;7.772;2023-07-13T07:57:04;22.80;86.50
19665;DHT22;9980;51.020;7.772;2023-07-13T07:59:34;22.90;86.60
19665;DHT22;9980;51.020;7.772;2023-07-13T08:02:05;23.00;86.30
19665;DHT22;9980;51.020;7.772;2023-07-13T08:04:53;23.00;85.80
19665;DHT22;9980;51.020;7.772;2023-07-13T08:07:23;23.10;85.90
19665;DHT22;9980;51.020;7.772;2023-07-13T08:09:52;23.10;85.50
19665;DHT22;9980;51.020;7.772;2023-07-13T08:12:20;23.10;84.60
19665;DHT22;9980;51.020;7.772;2023-07-13T08:14:50;23.20;85.00
19665;DHT22;9980;51.020;7.772;2023-07-13T08:17:20;23.20;85.00
19665;DHT22;9980;51.020;7.772;2023-07-13T08:19:47;23.20;84.10
19665;DHT22;9980;51.020;7.772;2023-07-13T08:22:15;23.30;84.50
19665;DHT22;9980;51.020;7.772;2023-07-13T08:24:42;23.30;84.80
19665;DHT22;9980;51.020;7.772;2023-07-13T08:27:10;23.30;85.50
19665;DHT22;9980;51.020;7.772;2023-07-13T08:29:39;23.40;85.00
19665;DHT22;9980;51.020;7.772;2023-07-13T08:32:06;23.50;86.60
19665;DHT22;9980;51.020;7.772;2023-07-13T08:34:36;23.60;85.50
19665;DHT22;9980;51.020;7.772;2023-07-13T08:37:03;23.60;84.80
19665;DHT22;9980;51.020;7.772;2023-07-13T08:39:31;23.80;84.70
19665;DHT22;9980;51.020;7.772;2023-07-13T08:42:06;23.80;83.90
19665;DHT22;9980;51.020;7.772;2023-07-13T08:44:40;23.90;83.20
19665;DHT22;9980;51.020;7.772;2023-07-13T08:47:31;24.00;83.40
19665;DHT22;9980;51.020;7.772;2023-07-13T08:50:03;24.10;82.80
19665;DHT22;9980;51.020;7.772;2023-07-13T08:52:35;24.20;83.60
19665;DHT22;9980;51.020;7.772;2023-07-13T08:55:17;24.30;83.10
19665;DHT22;9980;51.020;7.772;2023-07-13T08:57:56;24.40;82.10
19665;DHT22;9980;51.020;7.772;2023-07-13T09:00:38;24.50;82.70
19665;DHT22;9980;51.020;7.772;2023-07-13T09:03:19;24.60;82.40
19665;DHT22;9980;51.020;7.772;2023-07-13T09:05:57;24.80;82.30
19665;DHT22;9980;51.020;7.772;2023-07-13T09:11:36;25.00;81.10
19665;DHT22;9980;51.020;7.772;2023-07-13T09:14:37;25.10;79.40
19665;DHT22;9980;51.020;7.772;2023-07-13T09:17:22;25.20;80.30
19665;DHT22;9980;51.020;7.772;2023-07-13T09:20:00;25.30;80.70
19665;DHT22;9980;51.020;7.772;2023-07-13T09:22:33;25.30;78.50
19665;DHT22;9980;51.020;7.772;2023-07-13T09:25:45;25.40;78.00
19665;DHT22;9980;51.020;7.772;2023-07-13T09:28:00;25.40;79.00
19665;DHT22;9980;51.020;7.772;2023-07-13T09:30:42;25.50;79.80
19665;DHT22;9980;51.020;7.772;2023-07-13T09:33:30;25.50;78.80
19665;DHT22;9980;51.020;7.772;2023-07-13T09:35:58;25.60;78.70
19665;DHT22;9980;51.020;7.772;2023-07-13T09:38:28;25.60;78.20
19665;DHT22;9980;51.020;7.772;2023-07-13T09:44:10;25.70;77.90
19665;DHT22;9980;51.020;7.772;2023-07-13T09:46:45;25.70;77.50
19665;DHT22;9980;51.020;7.772;2023-07-13T09:49:14;25.80;76.40
19665;DHT22;9980;51.020;7.772;2023-07-13T09:51:42;25.80;76.90
19665;DHT22;9980;51.020;7.772;2023-07-13T09:54:21;25.90;76.90
19665;DHT22;9980;51.020;7.772;2023-07-13T09:56:55;25.90;75.10
19665;DHT22;9980;51.020;7.772;2023-07-13T09:59:27;25.90;75.60
19665;DHT22;9980;51.020;7.772;2023-07-13T10:01:57;26.00;75.70
19665;DHT22;9980;51.020;7.772;2023-07-13T10:04:31;26.00;75.90
19665;DHT22;9980;51.020;7.772;2023-07-13T10:07:08;26.10;75.30
19665;DHT22;9980;51.020;7.772;2023-07-13T10:09:55;26.20;75.50
19665;DHT22;9980;51.020;7.772;2023-07-13T10:12:29;26.40;76.30
19665;DHT22;9980;51.020;7.772;2023-07-13T10:15:02;26.60;76.20
19665;DHT22;9980;51.020;7.772;2023-07-13T10:17:50;26.60;74.90
19665;DHT22;9980;51.020;7.772;2023-07-13T10:20:20;26.70;74.00
19665;DHT22;9980;51.020;7.772;2023-07-13T10:23:01;26.70;73.00
19665;DHT22;9980;51.020;7.772;2023-07-13T10:25:33;26.80;72.60
19665;DHT22;9980;51.020;7.772;2023-07-13T10:28:23;26.80;72.10
19665;DHT22;9980;51.020;7.772;2023-07-13T10:30:57;26.80;72.60
19665;DHT22;9980;51.020;7.772;2023-07-13T10:33:27;26.80;71.10
19665;DHT22;9980;51.020;7.772;2023-07-13T10:36:29;26.80;69.80
19665;DHT22;9980;51.020;7.772;2023-07-13T10:39:01;26.80;70.10
19665;DHT22;9980;51.020;7.772;2023-07-13T10:41:35;26.90;69.70
19665;DHT22;9980;51.020;7.772;2023-07-13T10:44:14;26.90;68.60
19665;DHT22;9980;51.020;7.772;2023-07-13T10:46:46;27.00;67.20
19665;DHT22;9980;51.020;7.772;2023-07-13T10:49:16;26.90;69.00
19665;DHT22;9980;51.020;7.772;2023-07-13T10:51:45;27.00;68.50
19665;DHT22;9980;51.020;7.772;2023-07-13T10:54:27;27.00;67.80
19665;DHT22;9980;51.020;7.772;2023-07-13T10:57:17;27.00;67.30
19665;DHT22;9980;51.020;7.772;2023-07-13T11:00:14;27.10;67.70
19665;DHT22;9980;51.020;7.772;2023-07-13T11:02:43;27.10;69.40
19665;DHT22;9980;51.020;7.772;2023-07-13T11:05:26;27.20;68.20
19665;DHT22;9980;51.020;7.772;2023-07-13T11:08:20;27.30;67.00
19665;DHT22;9980;51.020;7.772;2023-07-13T11:10:59;27.30;66.20
19665;DHT22;9980;51.020;7.772;2023-07-13T11:18:46;27.50;65.50
19665;DHT22;9980;51.020;7.772;2023-07-13T11:21:23;27.50;65.10
19665;DHT22;9980;51.020;7.772;2023-07-13T11:24:18;27.60;64.40
19665;DHT22;9980;51.020;7.772;2023-07-13T11:31:42;27.60;64.10
19665;DHT22;9980;51.020;7.772;2023-07-13T11:34:36;27.60;63.60
19665;DHT22;9980;51.020;7.772;2023-07-13T11:37:11;27.60;64.60
19665;DHT22;9980;51.020;7.772;2023-07-13T11:39:44;27.60;62.50
19665;DHT22;9980;51.020;7.772;2023-07-13T11:42:16;27.50;63.60
19665;DHT22;9980;51.020;7.772;2023-07-13T11:44:47;27.50;63.80
19665;DHT22;9980;51.020;7.772;2023-07-13T11:47:34;27.50;63.30
19665;DHT22;9980;51.020;7.772;2023-07-13T11:50:22;27.50;64.70
19665;DHT22;9980;51.020;7.772;2023-07-13T11:52:52;27.50;64.90
19665;DHT22;9980;51.020;7.772;2023-07-13T11:55:23;27.50;64.90
19665;DHT22;9980;51.020;7.772;2023-07-13T11:57:56;27.50;63.70
19665;DHT22;9980;51.020;7.772;2023-07-13T12:00:29;27.50;64.20
19665;DHT22;9980;51.020;7.772;2023-07-13T12:03:01;27.50;63.90
19665;DHT22;9980;51.020;7.772;2023-07-13T12:05:32;27.50;63.50
19665;DHT22;9980;51.020;7.772;2023-07-13T12:07:59;27.50;63.60
19665;DHT22;9980;51.020;7.772;2023-07-13T12:10:37;27.50;63.60
19665;DHT22;9980;51.020;7.772;2023-07-13T12:13:05;27.50;63.50
19665;DHT22;9980;51.020;7.772;2023-07-13T12:15:36;27.60;63.40
19665;DHT22;9980;51.020;7.772;2023-07-13T12:18:18;27.60;64.40
19665;DHT22;9980;51.020;7.772;2023-07-13T12:20:48;27.70;64.00
19665;DHT22;9980;51.020;7.772;2023-07-13T12:25:52;27.80;63.20
19665;DHT22;9980;51.020;7.772;2023-07-13T12:31:04;27.80;63.50
19665;DHT22;9980;51.020;7.772;2023-07-13T12:33:33;27.80;63.70
19665;DHT22;9980;51.020;7.772;2023-07-13T12:36:02;27.90;62.90
19665;DHT22;9980;51.020;7.772;2023-07-13T12:38:38;27.90;61.00
19665;DHT22;9980;51.020;7.772;2023-07-13T12:41:08;27.90;61.50
19665;DHT22;9980;51.020;7.772;2023-07-13T12:43:37;27.90;61.70
19665;DHT22;9980;51.020;7.772;2023-07-13T12:46:19;27.80;62.00
19665;DHT22;9980;51.020;7.772;2023-07-13T12:48:52;27.80;61.60
19665;DHT22;9980;51.020;7.772;2023-07-13T12:51:40;27.80;62.10
19665;DHT22;9980;51.020;7.772;2023-07-13T12:54:17;27.80;63.20
19665;DHT22;9980;51.020;7.772;2023-07-13T12:59:52;27.90;65.20
19665;DHT22;9980;51.020;7.772;2023-07-13T13:02:33;28.00;62.90
19665;DHT22;9980;51.020;7.772;2023-07-13T13:05:02;28.10;62.10
19665;DHT22;9980;51.020;7.772;2023-07-13T13:07:31;28.20;62.80
19665;DHT22;9980;51.020;7.772;2023-07-13T13:09:59;28.20;60.50
19665;DHT22;9980;51.020;7.772;2023-07-13T13:12:25;28.20;60.30
19665;DHT22;9980;51.020;7.772;2023-07-13T13:14:53;28.10;60.60
19665;DHT22;9980;51.020;7.772;2023-07-13T13:17:23;28.20;60.50
19665;DHT22;9980;51.020;7.772;2023-07-13T13:19:57;28.20;59.90
19665;DHT22;9980;51.020;7.772;2023-07-13T13:22:24;28.20;61.40
19665;DHT22;9980;51.020;7.772;2023-07-13T13:24:51;28.20;60.40
19665;DHT22;9980;51.020;7.772;2023-07-13T13:27:20;28.20;59.70
19665;DHT22;9980;51.020;7.772;2023-07-13T13:29:50;28.30;60.40
19665;DHT22;9980;51.020;7.772;2023-07-13T13:32:18;28.30;62.00
19665;DHT22;9980;51.020;7.772;2023-07-13T13:34:45;28.40;60.90
19665;DHT22;9980;51.020;7.772;2023-07-13T13:37:19;28.40;59.60
19665;DHT22;9980;51.020;7.772;2023-07-13T13:39:52;28.50;60.50
19665;DHT22;9980;51.020;7.772;2023-07-13T13:42:34;28.50;59.40
19665;DHT22;9980;51.020;7.772;2023-07-13T13:45:01;28.60;59.30
19665;DHT22;9980;51.020;7.772;2023-07-13T13:47:32;28.60;59.20
19665;DHT22;9980;51.020;7.772;2023-07-13T13:50:10;28.60;60.00
19665;DHT22;9980;51.020;7.772;2023-07-13T13:52:40;28.70;60.10
19665;DHT22;9980;51.020;7.772;2023-07-13T13:55:16;28.70;60.10
19665;DHT22;9980;51.020;7.772;2023-07-13T13:57:47;28.70;59.30
19665;DHT22;9980;51.020;7.772;2023-07-13T14:00:16;28.60;59.00
19665;DHT22;9980;51.020;7.772;2023-07-13T14:02:48;28.60;60.00
19665;DHT22;9980;51.020;7.772;2023-07-13T14:05:24;28.60;59.70
19665;DHT22;9980;51.020;7.772;2023-07-13T14:07:56;28.60;59.00
19665;DHT22;9980;51.020;7.772;2023-07-13T14:10:26;28.60;57.90
19665;DHT22;9980;51.020;7.772;2023-07-13T14:12:56;28.60;58.50
19665;DHT22;9980;51.020;7.772;2023-07-13T14:15:27;28.60;59.60
19665;DHT22;9980;51.020;7.772;2023-07-13T14:17:57;28.70;58.50
19665;DHT22;9980;51.020;7.772;2023-07-13T14:20:25;28.80;58.50
19665;DHT22;9980;51.020;7.772;2023-07-13T14:22:54;28.80;59.00
19665;DHT22;9980;51.020;7.772;2023-07-13T14:25:21;28.90;58.30
19665;DHT22;9980;51.020;7.772;2023-07-13T14:27:53;29.00;57.90
19665;DHT22;9980;51.020;7.772;2023-07-13T14:30:25;29.00;57.00
19665;DHT22;9980;51.020;7.772;2023-07-13T14:32:53;29.10;56.80
19665;DHT22;9980;51.020;7.772;2023-07-13T14:35:21;29.10;56.30
19665;DHT22;9980;51.020;7.772;2023-07-13T14:37:50;29.20;56.60
19665;DHT22;9980;51.020;7.772;2023-07-13T14:40:21;29.20;56.50
19665;DHT22;9980;51.020;7.772;2023-07-13T14:42:58;29.30;57.60
19665;DHT22;9980;51.020;7.772;2023-07-13T14:45:25;29.40;57.30
19665;DHT22;9980;51.020;7.772;2023-07-13T14:47:53;29.40;56.60
19665;DHT22;9980;51.020;7.772;2023-07-13T14:50:24;29.40;56.90
19665;DHT22;9980;51.020;7.772;2023-07-13T14:52:56;29.50;56.20
19665;DHT22;9980;51.020;7.772;2023-07-13T14:55:23;29.60;56.70
19665;DHT22;9980;51.020;7.772;2023-07-13T14:57:52;29.60;56.00
19665;DHT22;9980;51.020;7.772;2023-07-13T15:00:21;29.70;56.00
19665;DHT22;9980;51.020;7.772;2023-07-13T15:02:54;29.70;55.60
19665;DHT22;9980;51.020;7.772;2023-07-13T15:05:27;29.70;55.10
19665;DHT22;9980;51.020;7.772;2023-07-13T15:08:01;29.70;54.30
19665;DHT22;9980;51.020;7.772;2023-07-13T15:10:32;29.70;54.60
19665;DHT22;9980;51.020;7.772;2023-07-13T15:13:22;29.70;53.60
19665;DHT22;9980;51.020;7.772;2023-07-13T15:15:51;29.70;53.80
19665;DHT22;9980;51.020;7.772;2023-07-13T15:18:22;29.70;53.60
19665;DHT22;9980;51.020;7.772;2023-07-13T15:20:52;29.70;53.30
19665;DHT22;9980;51.020;7.772;2023-07-13T15:23:20;29.70;54.20
19665;DHT22;9980;51.020;7.772;2023-07-13T15:25:47;29.60;53.70
19665;DHT22;9980;51.020;7.772;2023-07-13T15:28:15;29.60;53.80
19665;DHT22;9980;51.020;7.772;2023-07-13T15:30:48;29.60;53.60
19665;DHT22;9980;51.020;7.772;2023-07-13T15:33:29;29.50;53.00
19665;DHT22;9980;51.020;7.772;2023-07-13T15:35:56;29.40;52.80
19665;DHT22;9980;51.020;7.772;2023-07-13T15:38:28;29.40;53.80
19665;DHT22;9980;51.020;7.772;2023-07-13T15:40:57;29.30;53.80
19665;DHT22;9980;51.020;7.772;2023-07-13T15:43:40;29.20;53.50
19665;DHT22;9980;51.020;7.772;2023-07-13T15:46:07;29.20;53.90
19665;DHT22;9980;51.020;7.772;2023-07-13T15:48:34;29.10;54.10
19665;DHT22;9980;51.020;7.772;2023-07-13T15:51:03;29.00;54.00
19665;DHT22;9980;51.020;7.772;2023-07-13T15:53:33;29.00;53.40
19665;DHT22;9980;51.020;7.772;2023-07-13T15:59:03;28.80;53.30
19665;DHT22;9980;51.020;7.772;2023-07-13T16:01:30;28.60;53.30
19665;DHT22;9980;51.020;7.772;2023-07-13T16:03:59;28.40;54.00
19665;DHT22;9980;51.020;7.772;2023-07-13T16:06:31;28.30;53.70
19665;DHT22;9980;51.020;7.772;2023-07-13T16:09:02;28.20;53.60
19665;DHT22;9980;51.020;7.772;2023-07-13T16:11:38;28.00;54.00
19665;DHT22;9980;51.020;7.772;2023-07-13T16:14:06;27.90;54.70
19665;DHT22;9980;51.020;7.772;2023-07-13T16:16:34;27.80;54.70
19665;DHT22;9980;51.020;7.772;2023-07-13T16:19:03;27.70;55.40
19665;DHT22;9980;51.020;7.772;2023-07-13T16:21:36;27.60;55.70
19665;DHT22;9980;51.020;7.772;2023-07-13T16:24:15;27.50;55.50
19665;DHT22;9980;51.020;7.772;2023-07-13T16:26:47;27.40;55.10
19665;DHT22;9980;51.020;7.772;2023-07-13T16:29:18;27.40;55.20
19665;DHT22;9980;51.020;7.772;2023-07-13T16:32:14;27.30;55.80
19665;DHT22;9980;51.020;7.772;2023-07-13T16:34:43;27.20;56.40
19665;DHT22;9980;51.020;7.772;2023-07-13T16:37:19;27.10;56.20
19665;DHT22;9980;51.020;7.772;2023-07-13T16:39:53;27.00;56.50